Time;durP1;ratioP1;P1;durP2;ratioP2;P2;SDS_P1;SDS_P2;PMS_P1;PMS_P2;Temp;Humidity;BMP_temperature;BMP_pressure;BME280_temperature;BME280_humidity;BME280_pressure;Samples;Min_cycle;Max_cycle;Signal;HPM_P1;HPM_P2
2024/02/19 00:01:33;;;;;;;8.50;2.08;;;26.30;56.80;;;;;;5094083;28;20463;-58
2024/02/19 00:03:59;;;;;;;12.45;2.05;;;26.00;56.80;;;;;;5091153;28;20110;-59
2024/02/19 00:06:26;;;;;;;11.48;1.90;;;25.80;57.40;;;;;;5100888;28;20516;-59
2024/02/19 00:08:52;;;;;;;14.88;2.03;;;25.90;57.50;;;;;;5090307;28;20084;-58
2024/02/19 00:11:19;;;;;;;6.18;1.88;;;25.90;57.70;;;;;;5093857;28;20068;-57
2024/02/19 00:13:46;;;;;;;11.02;2.40;;;25.80;58.40;;;;;;5096337;28;20068;-57
2024/02/19 00:16:12;;;;;;;11.10;1.75;;;25.80;57.80;;;;;;5090192;28;20112;-57
2024/02/19 00:18:39;;;;;;;23.27;2.20;;;25.80;57.90;;;;;;5099081;28;20077;-57
2024/02/19 00:21:05;;;;;;;9.95;2.60;;;25.50;58.00;;;;;;5107011;28;20460;-58
2024/02/19 00:23:34;;;;;;;21.50;2.53;;;25.50;58.90;;;;;;5092781;28;20080;-58
2024/02/19 00:26:03;;;;;;;15.00;3.05;;;25.50;58.40;;;;;;5103492;28;20481;-58
2024/02/19 00:28:29;;;;;;;12.93;2.42;;;25.30;58.30;;;;;;5094040;28;20148;-59
2024/02/19 00:30:56;;;;;;;10.38;2.70;;;25.40;58.60;;;;;;5103336;28;20065;-58
2024/02/19 00:33:24;;;;;;;16.58;2.80;;;25.40;58.40;;;;;;5102477;28;20068;-59
2024/02/19 00:35:51;;;;;;;11.98;3.03;;;25.40;58.30;;;;;;5091702;28;20553;-58
2024/02/19 00:38:18;;;;;;;13.68;2.40;;;25.30;58.50;;;;;;5103734;28;20155;-58
2024/02/19 00:40:45;;;;;;;14.85;2.42;;;25.10;58.50;;;;;;5093147;28;20111;-59
2024/02/19 00:43:12;;;;;;;12.38;2.90;;;25.10;58.70;;;;;;5097382;28;20429;-57
2024/02/19 00:45:39;;;;;;;16.77;3.08;;;25.60;58.20;;;;;;5092137;28;20087;-59
2024/02/19 00:48:05;;;;;;;11.57;3.20;;;25.60;57.90;;;;;;5099713;28;20125;-58
2024/02/19 00:50:32;;;;;;;14.02;2.95;;;25.40;58.20;;;;;;5094499;28;20068;-58
2024/02/19 00:52:58;;;;;;;14.20;3.58;;;25.10;58.40;;;;;;5097380;28;20100;-58
2024/02/19 00:55:25;;;;;;;19.20;4.82;;;25.00;58.70;;;;;;5093065;28;20112;-59
2024/02/19 00:57:51;;;;;;;21.45;9.82;;;24.90;58.50;;;;;;5099007;28;20079;-59
2024/02/19 01:00:18;;;;;;;26.85;11.85;;;24.80;56.50;;;;;;5105582;28;20077;-60
2024/02/19 01:02:44;;;;;;;31.80;16.45;;;24.70;55.00;;;;;;5092681;28;20445;-58
2024/02/19 01:05:11;;;;;;;43.45;19.55;;;24.50;54.80;;;;;;5091236;28;20545;-59
2024/02/19 01:07:38;;;;;;;34.05;15.52;;;24.40;55.70;;;;;;5103345;28;20079;-58
2024/02/19 01:10:05;;;;;;;43.00;16.58;;;24.30;54.40;;;;;;5096281;28;20103;-58
2024/02/19 01:12:32;;;;;;;36.13;20.38;;;24.20;54.70;;;;;;5095022;28;20471;-58
2024/02/19 01:14:58;;;;;;;35.40;19.15;;;24.00;54.60;;;;;;5096433;28;20135;-60
2024/02/19 01:17:25;;;;;;;31.25;17.13;;;23.90;55.00;;;;;;5092919;28;20084;-59
2024/02/19 01:19:52;;;;;;;29.73;18.98;;;23.80;55.00;;;;;;5112282;28;20072;-60
2024/02/19 01:22:18;;;;;;;46.25;30.58;;;23.70;55.10;;;;;;5099405;28;20075;-60
2024/02/19 01:24:45;;;;;;;38.17;16.27;;;23.60;55.50;;;;;;5097977;28;20068;-59
2024/02/19 01:27:12;;;;;;;39.47;17.23;;;23.50;55.80;;;;;;5106235;27;20079;-59
2024/02/19 01:29:38;;;;;;;33.47;18.25;;;23.40;56.00;;;;;;5110531;28;20075;-60
2024/02/19 01:32:05;;;;;;;35.78;15.93;;;23.30;56.10;;;;;;5091482;28;20179;-59
2024/02/19 01:34:31;;;;;;;32.83;15.30;;;23.20;56.00;;;;;;5107159;28;20076;-58
2024/02/19 01:36:58;;;;;;;34.55;15.60;;;23.10;56.40;;;;;;5098965;28;20159;-59
2024/02/19 01:39:25;;;;;;;32.13;15.82;;;23.00;57.10;;;;;;5111809;28;20075;-59
2024/02/19 01:41:52;;;;;;;28.60;14.18;;;22.90;57.00;;;;;;5105868;28;20152;-59
2024/02/19 01:44:18;;;;;;;35.55;14.55;;;22.80;57.90;;;;;;5091510;28;20077;-58
2024/02/19 01:46:46;;;;;;;31.15;14.13;;;22.60;58.20;;;;;;5089748;28;20530;-58
2024/02/19 01:49:12;;;;;;;29.63;14.27;;;22.40;58.20;;;;;;5091197;28;20077;-59
2024/02/19 01:51:40;;;;;;;25.25;13.80;;;22.30;58.60;;;;;;5102847;28;20072;-59
2024/02/19 01:54:09;;;;;;;39.17;15.80;;;22.20;59.20;;;;;;5102760;28;20064;-58
2024/02/19 01:56:36;;;;;;;35.40;16.13;;;22.10;59.10;;;;;;5104901;28;20474;-60
2024/02/19 01:59:06;;;;;;;25.60;13.88;;;21.90;59.40;;;;;;5095318;28;20117;-61
2024/02/19 02:01:34;;;;;;;28.30;15.35;;;21.80;59.50;;;;;;5094895;28;20398;-59
2024/02/19 02:04:01;;;;;;;27.05;14.85;;;21.80;59.50;;;;;;5100401;28;20503;-59
2024/02/19 02:06:28;;;;;;;35.25;15.25;;;21.70;60.00;;;;;;5093167;28;20084;-60
2024/02/19 02:08:55;;;;;;;42.00;15.95;;;21.60;60.60;;;;;;5108863;28;20064;-60
2024/02/19 02:11:22;;;;;;;43.22;17.10;;;21.50;61.10;;;;;;5102601;28;20148;-60
2024/02/19 02:13:48;;;;;;;42.28;16.45;;;21.50;61.40;;;;;;5091105;28;20586;-59
2024/02/19 02:16:28;;;;;;;58.67;22.58;;;21.40;61.10;;;;;;5090905;28;20135;-59
2024/02/19 02:18:55;;;;;;;57.03;21.90;;;21.40;61.60;;;;;;5093893;28;20207;-58
2024/02/19 02:21:22;;;;;;;64.75;20.02;;;21.30;61.40;;;;;;5103352;28;20080;-59
2024/02/19 02:23:49;;;;;;;47.80;18.95;;;21.30;60.90;;;;;;5096745;28;20143;-59
2024/02/19 02:26:15;;;;;;;55.17;19.40;;;21.30;60.90;;;;;;5092371;28;20077;-59
2024/02/19 02:28:42;;;;;;;58.85;18.58;;;21.30;61.00;;;;;;5099101;28;20064;-59
2024/02/19 02:31:09;;;;;;;52.85;17.50;;;21.20;61.40;;;;;;5094238;28;20109;-59
2024/02/19 02:33:35;;;;;;;55.70;19.25;;;21.10;62.50;;;;;;5106612;28;20517;-59
2024/02/19 02:36:03;;;;;;;57.80;18.38;;;21.00;63.00;;;;;;5103200;28;20100;-58
2024/02/19 02:38:29;;;;;;;54.28;18.67;;;20.80;63.00;;;;;;5110054;28;20522;-59
2024/02/19 02:40:56;;;;;;;51.35;19.48;;;20.80;63.50;;;;;;5109526;28;20445;-60
2024/02/19 02:43:22;;;;;;;63.38;18.73;;;20.70;63.70;;;;;;5093905;28;20096;-58
2024/02/19 02:45:49;;;;;;;69.28;17.63;;;20.70;63.80;;;;;;5091331;28;20069;-59
2024/02/19 02:48:15;;;;;;;49.83;17.80;;;20.80;64.40;;;;;;5089793;28;20076;-59
2024/02/19 02:50:42;;;;;;;83.40;19.15;;;20.70;64.90;;;;;;5090866;28;20506;-57
2024/02/19 02:53:08;;;;;;;75.18;17.55;;;20.60;65.70;;;;;;5097965;28;20118;-61
2024/02/19 02:55:35;;;;;;;57.65;16.83;;;20.60;66.70;;;;;;5093647;28;20135;-60
2024/02/19 02:58:01;;;;;;;78.15;17.98;;;20.50;66.90;;;;;;5113286;28;20105;-60
2024/02/19 03:00:27;;;;;;;57.60;15.25;;;20.50;67.50;;;;;;5110033;28;20060;-60
2024/02/19 03:02:54;;;;;;;76.65;16.92;;;20.50;67.90;;;;;;5096351;28;20154;-60
2024/02/19 03:05:20;;;;;;;62.88;18.52;;;20.50;68.40;;;;;;5103483;28;20075;-59
2024/02/19 03:07:47;;;;;;;72.70;18.60;;;20.50;68.80;;;;;;5088012;28;20065;-59
2024/02/19 03:10:14;;;;;;;52.55;18.73;;;20.50;69.10;;;;;;5107048;28;20076;-61
2024/02/19 03:12:40;;;;;;;62.65;17.17;;;20.50;69.60;;;;;;5094943;28;20415;-59
2024/02/19 03:15:07;;;;;;;72.80;15.60;;;20.40;70.10;;;;;;5090407;28;20107;-61
2024/02/19 03:17:34;;;;;;;67.97;16.75;;;20.40;70.40;;;;;;5103218;28;20098;-60
2024/02/19 03:20:03;;;;;;;60.22;17.60;;;20.40;70.80;;;;;;5102474;28;20147;-60
2024/02/19 03:22:30;;;;;;;81.22;17.38;;;20.40;70.80;;;;;;5093161;28;20064;-61
2024/02/19 03:24:57;;;;;;;80.70;16.25;;;20.40;70.80;;;;;;5090947;28;20069;-61
2024/02/19 03:27:23;;;;;;;51.55;15.77;;;20.30;71.40;;;;;;5090430;28;20191;-60
2024/02/19 03:29:51;;;;;;;66.93;16.25;;;20.20;72.10;;;;;;5092075;28;20144;-60
2024/02/19 03:32:17;;;;;;;61.08;16.92;;;20.00;72.60;;;;;;5096553;28;20072;-60
2024/02/19 03:34:43;;;;;;;58.20;16.27;;;19.90;73.20;;;;;;5098171;28;20100;-60
2024/02/19 03:37:11;;;;;;;63.55;15.18;;;19.80;73.70;;;;;;5088061;28;20122;-59
2024/02/19 03:39:38;;;;;;;51.83;15.98;;;19.80;74.30;;;;;;5093501;28;20402;-60
2024/02/19 03:42:05;;;;;;;60.13;15.88;;;19.70;74.40;;;;;;5095407;28;20060;-59
2024/02/19 03:44:32;;;;;;;58.55;17.95;;;19.70;74.60;;;;;;5109004;28;20571;-59
2024/02/19 03:46:58;;;;;;;64.13;20.25;;;19.60;74.60;;;;;;5090741;28;20099;-59
2024/02/19 03:49:25;;;;;;;62.97;21.83;;;19.60;74.40;;;;;;5089218;28;20077;-59
2024/02/19 03:51:51;;;;;;;62.53;21.50;;;19.60;74.60;;;;;;5088743;28;20094;-58
2024/02/19 03:54:18;;;;;;;61.22;20.15;;;19.50;74.90;;;;;;5102707;28;20437;-59
2024/02/19 03:56:45;;;;;;;80.95;20.88;;;19.50;75.10;;;;;;5090999;28;20212;-59
2024/02/19 03:59:11;;;;;;;89.43;23.30;;;19.40;75.50;;;;;;5088682;28;20113;-59
2024/02/19 04:01:37;;;;;;;81.65;21.77;;;19.30;75.50;;;;;;5091309;28;20073;-58
2024/02/19 04:04:04;;;;;;;75.10;22.55;;;19.20;76.00;;;;;;5098192;28;20109;-60
2024/02/19 04:06:31;;;;;;;75.72;22.85;;;19.20;76.20;;;;;;5096269;28;20077;-62
2024/02/19 04:08:57;;;;;;;70.90;20.13;;;19.10;76.70;;;;;;5097375;28;20116;-60
2024/02/19 04:11:24;;;;;;;64.20;20.02;;;19.10;76.70;;;;;;5095342;28;20083;-61
2024/02/19 04:13:50;;;;;;;65.47;18.70;;;19.10;76.80;;;;;;5100386;28;20075;-61
2024/02/19 04:16:17;;;;;;;59.13;18.10;;;19.00;76.70;;;;;;5103597;28;20564;-62
2024/02/19 04:18:44;;;;;;;88.10;19.58;;;19.00;76.70;;;;;;5097867;28;20076;-60
2024/02/19 04:21:10;;;;;;;80.18;21.88;;;19.00;77.10;;;;;;5098636;28;20076;-63
2024/02/19 04:23:37;;;;;;;71.80;20.48;;;18.90;77.40;;;;;;5097498;28;20149;-59
2024/02/19 04:26:04;;;;;;;92.43;25.52;;;18.80;77.20;;;;;;5107448;28;20114;-60
2024/02/19 04:28:30;;;;;;;87.22;26.17;;;18.70;78.30;;;;;;5100993;28;20068;-59
2024/02/19 04:30:57;;;;;;;78.45;24.55;;;18.70;77.90;;;;;;5095219;28;20490;-60
2024/02/19 04:33:24;;;;;;;73.47;23.40;;;18.60;79.20;;;;;;5093614;28;20065;-61
2024/02/19 04:35:50;;;;;;;76.75;21.83;;;18.60;79.00;;;;;;5097028;28;20100;-60
2024/02/19 04:38:17;;;;;;;77.32;21.58;;;18.60;79.30;;;;;;5100155;28;20518;-60
2024/02/19 04:40:43;;;;;;;62.42;19.33;;;18.50;79.10;;;;;;5095490;28;20079;-60
2024/02/19 04:43:10;;;;;;;72.13;19.55;;;18.50;80.00;;;;;;5104694;28;20080;-59
2024/02/19 04:45:37;;;;;;;78.60;18.95;;;18.40;79.10;;;;;;5107202;28;20125;-60
2024/02/19 04:48:03;;;;;;;54.50;18.23;;;18.40;79.60;;;;;;5101505;28;20061;-59
2024/02/19 04:50:30;;;;;;;78.25;19.05;;;18.40;80.00;;;;;;5096529;28;20100;-59
2024/02/19 04:52:56;;;;;;;78.43;18.48;;;18.30;80.50;;;;;;5094056;28;20118;-59
2024/02/19 04:55:22;;;;;;;72.22;17.27;;;18.30;80.10;;;;;;5104776;28;20113;-59
2024/02/19 04:57:49;;;;;;;59.97;16.38;;;18.30;79.60;;;;;;5097513;28;20442;-60
2024/02/19 05:00:16;;;;;;;58.53;16.02;;;18.30;79.20;;;;;;5089116;28;20518;-58
2024/02/19 05:02:42;;;;;;;63.67;17.08;;;18.30;79.30;;;;;;5089211;28;20599;-60
2024/02/19 05:05:10;;;;;;;55.33;16.10;;;18.30;79.90;;;;;;5105401;28;20065;-59
2024/02/19 05:07:36;;;;;;;45.70;14.75;;;18.30;79.80;;;;;;5096851;28;20069;-60
2024/02/19 05:10:04;;;;;;;73.38;18.15;;;18.20;79.50;;;;;;5091245;28;20183;-61
2024/02/19 05:12:31;;;;;;;79.43;18.75;;;18.20;79.80;;;;;;5099786;28;20068;-60
2024/02/19 05:14:58;;;;;;;66.72;19.52;;;18.10;79.90;;;;;;5097185;28;20164;-59
2024/02/19 05:17:25;;;;;;;60.13;18.85;;;18.00;80.30;;;;;;5094509;28;20156;-61
2024/02/19 05:19:51;;;;;;;91.07;21.33;;;18.00;80.10;;;;;;5094562;28;20506;-60
2024/02/19 05:22:18;;;;;;;72.20;19.23;;;18.00;81.00;;;;;;5103384;28;20550;-58
2024/02/19 05:24:47;;;;;;;64.97;19.83;;;17.90;81.00;;;;;;5099811;28;20099;-62
2024/02/19 05:27:14;;;;;;;82.78;20.83;;;17.90;80.90;;;;;;5108425;28;20526;-60
2024/02/19 05:29:40;;;;;;;67.80;20.13;;;17.90;82.00;;;;;;5095031;28;20084;-59
2024/02/19 05:32:07;;;;;;;76.28;20.85;;;17.90;81.00;;;;;;5102631;28;20069;-59
2024/02/19 05:34:33;;;;;;;55.45;18.58;;;17.80;81.90;;;;;;5096700;28;20068;-59
2024/02/19 05:37:00;;;;;;;76.60;18.45;;;17.80;82.00;;;;;;5097173;28;20623;-60
2024/02/19 05:39:26;;;;;;;69.75;19.20;;;17.70;82.60;;;;;;5096724;28;20069;-60
2024/02/19 05:41:53;;;;;;;75.35;18.55;;;17.60;83.50;;;;;;5101551;28;20073;-60
2024/02/19 05:44:19;;;;;;;78.20;18.58;;;17.60;84.10;;;;;;5094462;28;20079;-60
2024/02/19 05:46:46;;;;;;;90.82;19.60;;;17.50;84.30;;;;;;5101199;28;20093;-59
2024/02/19 05:49:12;;;;;;;69.80;18.40;;;17.50;84.00;;;;;;5097033;28;20162;-60
2024/02/19 05:51:41;;;;;;;81.32;18.23;;;17.50;84.10;;;;;;5097004;28;20071;-63
2024/02/19 05:54:07;;;;;;;70.30;17.92;;;17.40;84.70;;;;;;5104574;28;20172;-61
2024/02/19 05:56:34;;;;;;;56.45;17.60;;;17.40;84.90;;;;;;5095634;28;20104;-64
2024/02/19 05:59:01;;;;;;;55.65;18.65;;;17.40;84.80;;;;;;5095390;28;20092;-63
2024/02/19 06:01:27;;;;;;;77.90;23.05;;;17.30;86.00;;;;;;5094732;28;20109;-64
2024/02/19 06:03:54;;;;;;;79.70;28.02;;;17.30;85.70;;;;;;5095513;28;20180;-64
2024/02/19 06:06:20;;;;;;;73.80;24.63;;;17.20;86.30;;;;;;5095172;28;20094;-65
2024/02/19 06:08:47;;;;;;;73.78;21.95;;;17.20;87.50;;;;;;5110048;28;20117;-66
2024/02/19 06:11:13;;;;;;;78.53;19.95;;;17.20;87.80;;;;;;5107879;28;20510;-65
2024/02/19 06:13:40;;;;;;;90.55;20.20;;;17.10;88.00;;;;;;5101525;28;20134;-65
2024/02/19 06:16:07;;;;;;;80.05;19.38;;;17.00;88.50;;;;;;5102021;28;20165;-65
2024/02/19 06:18:34;;;;;;;68.28;19.95;;;16.90;89.40;;;;;;5110305;28;20102;-64
2024/02/19 06:21:00;;;;;;;88.82;19.58;;;16.90;89.30;;;;;;5103964;28;20572;-64
2024/02/19 06:23:28;;;;;;;76.22;18.65;;;16.90;89.30;;;;;;5107609;28;20068;-65
2024/02/19 06:25:54;;;;;;;87.50;19.95;;;16.90;89.10;;;;;;5095466;28;20504;-66
2024/02/19 06:28:20;;;;;;;83.25;20.15;;;16.80;89.10;;;;;;5093926;28;20072;-65
2024/02/19 06:30:47;;;;;;;71.10;19.83;;;16.80;90.00;;;;;;5104455;28;20161;-64
2024/02/19 06:33:16;;;;;;;77.75;19.08;;;16.80;90.30;;;;;;5100645;28;20116;-67
2024/02/19 06:35:44;;;;;;;75.43;19.13;;;16.70;90.50;;;;;;5096396;28;20552;-64
2024/02/19 06:38:10;;;;;;;61.20;19.30;;;16.70;90.40;;;;;;5090359;28;20107;-62
2024/02/19 06:40:37;;;;;;;74.35;19.50;;;16.60;90.60;;;;;;5089904;28;20109;-65
2024/02/19 06:43:03;;;;;;;108.32;20.98;;;16.60;90.30;;;;;;5101052;28;20068;-66
2024/02/19 06:45:30;;;;;;;83.47;19.95;;;16.70;90.50;;;;;;5095946;28;20192;-64
2024/02/19 06:47:56;;;;;;;76.95;19.73;;;16.60;90.50;;;;;;5105954;28;20072;-67
2024/02/19 06:50:24;;;;;;;83.38;19.48;;;16.60;90.40;;;;;;5108885;28;20104;-67
2024/02/19 06:52:50;;;;;;;77.03;19.73;;;16.50;91.10;;;;;;5098467;28;20073;-66
2024/02/19 06:55:17;;;;;;;64.13;17.85;;;16.60;91.10;;;;;;5111011;28;20577;-66
2024/02/19 06:57:44;;;;;;;75.70;18.70;;;16.50;90.90;;;;;;5097610;28;20229;-67
2024/02/19 07:00:11;;;;;;;74.70;20.67;;;16.50;91.30;;;;;;5094745;28;20071;-66
2024/02/19 07:02:39;;;;;;;83.05;19.77;;;16.50;91.20;;;;;;5106468;28;20078;-65
2024/02/19 07:05:06;;;;;;;65.43;20.65;;;16.50;91.30;;;;;;5099420;28;20509;-67
2024/02/19 07:07:33;;;;;;;70.07;18.60;;;16.50;91.50;;;;;;5096066;28;20557;-67
2024/02/19 07:10:00;;;;;;;70.38;19.35;;;16.40;91.50;;;;;;5097194;28;20068;-66
2024/02/19 07:12:27;;;;;;;72.82;18.95;;;16.50;91.70;;;;;;5102661;28;20068;-67
2024/02/19 07:14:55;;;;;;;70.00;18.38;;;16.40;91.90;;;;;;5091281;28;21148;-68
2024/02/19 07:17:22;;;;;;;83.78;19.40;;;16.30;92.10;;;;;;5101510;28;20122;-67
2024/02/19 07:19:49;;;;;;;73.07;20.70;;;16.40;92.10;;;;;;5093171;28;20092;-66
2024/02/19 07:22:16;;;;;;;84.03;24.02;;;16.40;92.40;;;;;;5093136;28;20064;-67
2024/02/19 07:24:42;;;;;;;92.90;29.15;;;16.30;92.20;;;;;;5096273;28;20069;-67
2024/02/19 07:27:09;;;;;;;85.22;31.35;;;16.20;92.50;;;;;;5093043;28;20126;-65
2024/02/19 07:29:35;;;;;;;79.00;25.15;;;16.30;92.40;;;;;;5094263;28;20075;-66
2024/02/19 07:32:02;;;;;;;85.57;25.27;;;16.10;92.60;;;;;;5094069;28;20060;-66
2024/02/19 07:34:29;;;;;;;78.65;25.08;;;16.20;92.80;;;;;;5099177;28;20126;-66
2024/02/19 07:36:55;;;;;;;85.90;25.55;;;16.20;92.80;;;;;;5100391;28;20441;-65
2024/02/19 07:39:21;;;;;;;79.43;25.48;;;16.20;93.00;;;;;;5098970;28;20068;-65
2024/02/19 07:41:48;;;;;;;68.70;31.17;;;16.10;92.90;;;;;;5089633;28;20065;-65
2024/02/19 07:44:14;;;;;;;91.72;27.45;;;16.10;93.00;;;;;;5096214;28;20522;-66
2024/02/19 07:46:41;;;;;;;98.38;26.98;;;16.00;93.50;;;;;;5095568;28;20076;-66
2024/02/19 07:49:07;;;;;;;99.57;28.13;;;15.90;93.50;;;;;;5098930;28;20114;-65
2024/02/19 07:51:34;;;;;;;82.95;27.77;;;15.90;94.00;;;;;;5089637;28;20089;-65
2024/02/19 07:54:00;;;;;;;89.25;25.17;;;15.90;93.20;;;;;;5091722;28;20147;-64
2024/02/19 07:56:27;;;;;;;82.38;23.90;;;15.90;93.10;;;;;;5090559;28;20112;-65
2024/02/19 07:58:53;;;;;;;75.72;23.65;;;15.90;93.00;;;;;;5091983;28;20061;-66
2024/02/19 08:01:19;;;;;;;77.40;23.33;;;16.00;93.10;;;;;;5094649;28;20073;-67
2024/02/19 08:03:46;;;;;;;66.45;23.08;;;16.00;93.00;;;;;;5095346;28;20099;-67
2024/02/19 08:06:12;;;;;;;69.85;25.00;;;15.90;93.20;;;;;;5091739;28;20079;-67
2024/02/19 08:08:39;;;;;;;79.70;24.35;;;15.80;93.60;;;;;;5091540;28;20065;-67
2024/02/19 08:11:05;;;;;;;90.20;24.15;;;15.80;93.30;;;;;;5090468;28;20075;-66
2024/02/19 08:13:32;;;;;;;85.13;23.10;;;15.80;93.40;;;;;;5098683;28;20488;-67
2024/02/19 08:15:58;;;;;;;78.50;23.67;;;15.70;93.30;;;;;;5091750;28;20142;-66
2024/02/19 08:18:25;;;;;;;67.82;20.27;;;15.80;93.20;;;;;;5093080;28;20159;-66
2024/02/19 08:20:51;;;;;;;65.93;19.95;;;15.80;93.00;;;;;;5094368;28;20103;-66
2024/02/19 08:23:18;;;;;;;63.88;19.75;;;15.70;93.00;;;;;;5087822;28;20103;-64
2024/02/19 08:25:47;;;;;;;64.18;19.67;;;15.70;92.70;;;;;;5094392;28;20510;-65
2024/02/19 08:28:14;;;;;;;75.85;20.30;;;15.80;92.90;;;;;;5087861;28;20075;-66
2024/02/19 08:30:40;;;;;;;67.55;18.77;;;15.80;92.60;;;;;;5089676;28;20072;-65
2024/02/19 08:33:07;;;;;;;70.90;18.83;;;15.70;92.50;;;;;;5094540;28;20113;-64
2024/02/19 08:35:33;;;;;;;68.95;18.40;;;15.60;92.60;;;;;;5094497;28;20178;-66
2024/02/19 08:37:59;;;;;;;62.53;18.33;;;15.60;93.30;;;;;;5097209;28;20072;-67
2024/02/19 08:40:26;;;;;;;62.38;18.50;;;15.60;93.50;;;;;;5094997;28;20429;-67
2024/02/19 08:42:53;;;;;;;62.17;18.40;;;15.60;93.10;;;;;;5097900;28;20068;-67
2024/02/19 08:45:20;;;;;;;65.13;19.27;;;15.50;93.10;;;;;;5099397;28;20065;-67
2024/02/19 08:47:46;;;;;;;67.00;19.08;;;15.40;93.30;;;;;;5096591;28;20073;-66
2024/02/19 08:50:13;;;;;;;67.38;18.17;;;15.40;93.40;;;;;;5095523;28;20517;-65
2024/02/19 08:52:40;;;;;;;60.90;20.20;;;15.30;93.50;;;;;;5098602;28;20399;-64
2024/02/19 08:55:06;;;;;;;60.78;18.45;;;15.30;93.60;;;;;;5099122;28;20126;-65
2024/02/19 08:57:33;;;;;;;47.33;18.85;;;15.30;93.60;;;;;;5094395;28;20069;-61
2024/02/19 08:59:59;;;;;;;51.83;17.15;;;15.20;93.50;;;;;;5096560;28;20516;-65
2024/02/19 09:02:26;;;;;;;53.00;17.65;;;15.30;93.70;;;;;;5097726;28;20388;-66
2024/02/19 09:04:52;;;;;;;51.63;17.35;;;15.20;93.90;;;;;;5095200;28;20061;-66
2024/02/19 09:07:19;;;;;;;54.05;18.45;;;15.20;94.10;;;;;;5099277;28;20061;-66
2024/02/19 09:09:46;;;;;;;53.00;18.00;;;15.20;94.00;;;;;;5093408;28;20092;-65
2024/02/19 09:12:12;;;;;;;57.03;20.08;;;15.20;93.70;;;;;;5098829;28;20475;-66
2024/02/19 09:14:39;;;;;;;74.95;23.67;;;15.10;93.70;;;;;;5099737;28;20437;-66
2024/02/19 09:17:07;;;;;;;51.85;20.20;;;15.10;94.00;;;;;;5101097;28;20129;-66
2024/02/19 09:19:33;;;;;;;56.88;19.80;;;15.10;94.60;;;;;;5105969;28;20072;-65
2024/02/19 09:22:00;;;;;;;56.45;19.58;;;15.10;94.00;;;;;;5100571;28;20086;-66
2024/02/19 09:24:26;;;;;;;48.70;19.50;;;15.10;93.90;;;;;;5105972;28;20067;-67
2024/02/19 09:26:53;;;;;;;54.83;18.75;;;15.00;93.90;;;;;;5104272;28;20088;-67
2024/02/19 09:29:19;;;;;;;47.88;18.88;;;15.00;93.90;;;;;;5096617;28;20181;-66
2024/02/19 09:31:46;;;;;;;64.32;18.30;;;15.00;94.00;;;;;;5095692;28;20163;-67
2024/02/19 09:34:12;;;;;;;52.13;19.05;;;15.00;94.40;;;;;;5102884;27;20425;-67
2024/02/19 09:36:42;;;;;;;56.28;19.48;;;14.90;95.00;;;;;;5100081;28;20564;-67
2024/02/19 09:39:10;;;;;;;53.58;18.27;;;14.90;94.90;;;;;;5100753;28;20076;-67
2024/02/19 09:41:36;;;;;;;52.28;18.67;;;14.80;94.90;;;;;;5102724;28;20064;-66
2024/02/19 09:44:03;;;;;;;53.22;19.08;;;14.80;95.10;;;;;;5096607;28;20091;-66
2024/02/19 09:46:30;;;;;;;46.55;18.25;;;14.80;95.40;;;;;;5101527;28;20078;-66
2024/02/19 09:48:59;;;;;;;45.22;18.27;;;14.80;95.20;;;;;;5099191;28;20172;-67
2024/02/19 09:51:28;;;;;;;48.10;18.20;;;14.70;95.50;;;;;;5101619;28;20406;-65
2024/02/19 09:53:56;;;;;;;54.90;17.52;;;14.70;95.60;;;;;;5097190;28;20530;-66
2024/02/19 09:56:24;;;;;;;48.13;18.48;;;14.70;95.40;;;;;;5101107;28;20112;-65
2024/02/19 09:58:50;;;;;;;48.05;17.77;;;14.80;95.10;;;;;;5100902;28;20108;-67
2024/02/19 10:01:19;;;;;;;50.70;17.42;;;14.70;95.40;;;;;;5097610;28;20078;-65
2024/02/19 10:03:47;;;;;;;45.85;18.35;;;14.70;95.60;;;;;;5104715;28;20189;-67
2024/02/19 10:06:13;;;;;;;57.05;19.08;;;14.60;95.80;;;;;;5106926;28;20532;-67
2024/02/19 10:08:40;;;;;;;51.85;19.23;;;14.70;95.70;;;;;;5104692;28;20430;-66
2024/02/19 10:11:10;;;;;;;46.30;17.88;;;14.70;95.90;;;;;;5095334;28;20104;-66
2024/02/19 10:13:41;;;;;;;44.60;18.27;;;14.60;95.90;;;;;;5100420;28;20087;-67
2024/02/19 10:16:11;;;;;;;54.83;17.70;;;14.60;95.90;;;;;;5102571;28;20514;-59
2024/02/19 10:18:41;;;;;;;52.67;17.95;;;14.90;96.40;;;;;;5097887;28;20159;-59
2024/02/19 10:21:10;;;;;;;44.80;18.65;;;15.50;95.60;;;;;;5101037;27;20068;-58
2024/02/19 10:23:36;;;;;;;48.05;18.52;;;15.60;94.30;;;;;;5102361;27;20110;-58
2024/02/19 10:26:03;;;;;;;42.22;18.92;;;15.70;94.60;;;;;;5101727;28;20065;-58
2024/02/19 10:28:31;;;;;;;59.72;19.85;;;16.20;93.80;;;;;;5100433;28;20069;-58
2024/02/19 10:30:58;;;;;;;55.55;19.17;;;16.30;93.30;;;;;;5106324;28;20473;-58
2024/02/19 10:33:24;;;;;;;66.25;19.40;;;16.50;93.10;;;;;;5099160;28;20079;-58
2024/02/19 10:35:51;;;;;;;63.38;19.80;;;16.60;92.40;;;;;;5106506;28;20454;-59
2024/02/19 10:38:17;;;;;;;54.85;19.92;;;16.40;92.30;;;;;;5106702;28;20069;-59
2024/02/19 10:40:44;;;;;;;51.88;22.58;;;16.20;92.80;;;;;;5103534;28;20105;-58
2024/02/19 10:43:11;;;;;;;55.25;22.88;;;16.00;92.60;;;;;;5106801;28;20080;-58
2024/02/19 10:45:38;;;;;;;61.80;25.75;;;15.70;93.40;;;;;;5100881;28;20084;-58
2024/02/19 10:48:05;;;;;;;59.90;26.50;;;15.80;93.10;;;;;;5100770;28;20068;-58
2024/02/19 10:50:35;;;;;;;65.22;29.20;;;15.50;93.60;;;;;;5102111;28;20071;-58
2024/02/19 10:53:06;;;;;;;65.43;26.55;;;15.40;94.10;;;;;;5097026;28;20064;-59
2024/02/19 10:55:36;;;;;;;65.75;26.77;;;15.30;94.60;;;;;;5099738;28;20112;-58
2024/02/19 10:58:11;;;;;;;59.55;26.20;;;15.30;94.70;;;;;;5105061;28;20262;-58
2024/02/19 11:00:38;;;;;;;59.53;25.95;;;15.20;95.00;;;;;;5102819;28;20132;-58
2024/02/19 11:03:07;;;;;;;67.55;27.13;;;15.50;94.90;;;;;;5100075;28;20533;-58
2024/02/19 11:05:44;;;;;;;54.47;24.42;;;15.50;94.60;;;;;;5099159;28;20142;-59
2024/02/19 11:08:23;;;;;;;63.63;26.02;;;15.90;94.30;;;;;;5092005;28;20084;-58
2024/02/19 11:10:55;;;;;;;59.33;24.88;;;16.00;94.10;;;;;;5101870;28;20105;-58
2024/02/19 11:13:26;;;;;;;60.88;25.60;;;16.00;94.00;;;;;;5099161;28;20427;-58
2024/02/19 11:15:53;;;;;;;55.13;23.30;;;16.10;93.90;;;;;;5094773;28;20108;-58
2024/02/19 11:18:20;;;;;;;51.92;23.08;;;16.00;94.20;;;;;;5103806;28;20084;-58
2024/02/19 11:20:48;;;;;;;59.55;24.52;;;15.90;94.40;;;;;;5103228;28;20064;-58
2024/02/19 15:58:11;;;;;;;42.15;12.32;;;16.50;99.90;;;;;;5074021;28;20143;-60
2024/02/19 16:00:40;;;;;;;35.00;10.75;;;17.00;99.90;;;;;;5106655;28;20108;-59
2024/02/19 16:03:07;;;;;;;29.20;9.95;;;17.40;99.90;;;;;;5105850;28;20079;-59
2024/02/19 16:05:34;;;;;;;33.78;10.57;;;17.90;99.90;;;;;;5101149;28;20163;-59
2024/02/19 16:08:00;;;;;;;37.47;11.77;;;18.00;99.90;;;;;;5095340;28;20092;-59
2024/02/19 16:10:28;;;;;;;32.85;10.73;;;18.20;99.90;;;;;;5100035;28;20452;-59
2024/02/19 16:12:54;;;;;;;29.15;10.38;;;18.60;99.40;;;;;;5094441;28;20076;-60
2024/02/19 16:15:21;;;;;;;28.08;11.52;;;19.10;98.40;;;;;;5092291;28;20161;-61
2024/02/19 16:17:47;;;;;;;41.58;9.90;;;19.30;97.50;;;;;;5104117;28;20571;-60
2024/02/19 16:20:14;;;;;;;30.67;9.80;;;19.70;97.20;;;;;;5102441;28;20519;-60
2024/02/19 16:22:42;;;;;;;30.92;11.63;;;20.00;96.70;;;;;;5099617;28;20576;-61
2024/02/19 16:25:09;;;;;;;32.45;9.05;;;20.40;95.70;;;;;;5099255;28;20065;-60
2024/02/19 16:27:35;;;;;;;27.23;8.45;;;20.70;94.80;;;;;;5100455;28;20118;-60
2024/02/19 16:30:02;;;;;;;28.77;8.70;;;21.00;94.20;;;;;;5099342;28;20065;-61
2024/02/19 16:32:29;;;;;;;26.63;8.35;;;21.20;93.80;;;;;;5094210;28;20065;-61
2024/02/19 16:34:55;;;;;;;24.00;7.72;;;21.20;93.60;;;;;;5101178;28;20075;-60
2024/02/19 16:37:22;;;;;;;22.75;7.57;;;21.40;93.80;;;;;;5101101;28;20121;-60
2024/02/19 16:39:51;;;;;;;22.45;6.55;;;21.10;94.30;;;;;;5101255;28;20510;-61
2024/02/19 16:42:18;;;;;;;22.20;6.63;;;21.20;94.50;;;;;;5104574;28;20069;-60
2024/02/19 16:44:45;;;;;;;28.80;7.55;;;21.60;94.10;;;;;;5103797;28;20095;-61
2024/02/19 16:47:11;;;;;;;29.70;7.80;;;22.20;93.00;;;;;;5101615;28;20095;-61
2024/02/19 16:49:38;;;;;;;20.52;8.15;;;21.70;93.70;;;;;;5101379;28;20168;-61
2024/02/19 16:52:04;;;;;;;18.88;7.30;;;21.80;94.30;;;;;;5099867;28;20065;-61
2024/02/19 16:54:31;;;;;;;27.45;7.60;;;22.50;93.60;;;;;;5091376;28;20065;-60
2024/02/19 16:56:58;;;;;;;25.85;6.72;;;23.30;92.30;;;;;;5105989;28;20146;-61
2024/02/19 16:59:24;;;;;;;18.27;6.63;;;23.60;91.50;;;;;;5096540;28;20109;-61
2024/02/19 17:01:50;;;;;;;37.10;8.27;;;24.40;90.30;;;;;;5100042;28;20068;-61